Time;durP1;ratioP1;P1;durP2;ratioP2;P2;SDS_P1;SDS_P2;PMS_P1;PMS_P2;Temp;Humidity;BMP_temperature;BMP_pressure;BME280_temperature;BME280_humidity;BME280_pressure;Samples;Min_cycle;Max_cycle;Signal;HPM_P1;HPM_P2
2023/05/16 00:00:36;;;;;;;0.50;0.50;;;;;;;9.01;64.23;99824.25;5027535;28;20058;-80
2023/05/16 00:03:05;;;;;;;0.40;0.40;;;;;;;9.01;64.16;99825.06;5011530;28;20645;-82
2023/05/16 00:05:32;;;;;;;0.50;0.50;;;;;;;9.00;64.28;99818.03;5011935;28;20530;-81
2023/05/16 00:08:02;;;;;;;0.50;0.50;;;;;;;9.00;64.36;99823.41;5011795;28;20049;-80
2023/05/16 00:10:29;;;;;;;0.60;0.60;;;;;;;8.94;64.68;99829.69;5010775;28;20046;-81
2023/05/16 00:12:56;;;;;;;0.60;0.60;;;;;;;8.88;64.72;99825.13;5011982;28;20463;-81
2023/05/16 00:15:24;;;;;;;0.50;0.50;;;;;;;8.88;64.57;99838.59;5011626;28;20386;-82
2023/05/16 00:17:56;;;;;;;0.50;0.50;;;;;;;8.83;64.47;99833.00;5011970;28;20046;-79
2023/05/16 00:20:27;;;;;;;0.60;0.60;;;;;;;8.92;63.62;99826.38;5010064;28;20069;-80
2023/05/16 00:22:55;;;;;;;0.60;0.60;;;;;;;9.07;62.33;99834.16;5010701;28;20057;-80
2023/05/16 00:25:22;;;;;;;0.50;0.50;;;;;;;9.24;61.49;99831.78;5011562;28;20048;-81
2023/05/16 00:27:49;;;;;;;0.50;0.50;;;;;;;9.35;61.10;99820.34;4994471;28;20453;-80
2023/05/16 00:30:19;;;;;;;0.50;0.50;;;;;;;9.39;61.60;99826.94;5011176;28;20060;-80
2023/05/16 00:32:51;;;;;;;0.50;0.50;;;;;;;9.37;60.95;99826.34;5010066;28;20505;-81
2023/05/16 00:35:18;;;;;;;0.50;0.50;;;;;;;9.41;61.15;99824.03;5011135;28;20508;-81
2023/05/16 00:37:45;;;;;;;0.50;0.50;;;;;;;9.33;61.40;99822.44;5010376;28;20056;-81
2023/05/16 00:40:13;;;;;;;0.50;0.50;;;;;;;9.31;61.69;99819.13;5009915;28;20096;-81
2023/05/16 00:42:43;;;;;;;0.50;0.50;;;;;;;9.26;61.33;99818.94;4995846;28;20568;-81
2023/05/16 00:45:10;;;;;;;0.50;0.50;;;;;;;9.21;61.48;99814.19;5011919;28;20050;-82
2023/05/16 00:47:42;;;;;;;0.50;0.50;;;;;;;9.16;62.25;99814.00;5010993;28;20057;-81
2023/05/16 00:50:10;;;;;;;0.55;0.55;;;;;;;9.03;62.46;99817.59;5011732;28;20046;-82
2023/05/16 00:52:38;;;;;;;0.50;0.50;;;;;;;9.04;62.78;99819.28;5012151;28;20112;-81
2023/05/16 00:55:05;;;;;;;0.50;0.50;;;;;;;9.00;63.00;99818.03;5010130;28;20089;-81
2023/05/16 00:57:33;;;;;;;0.50;0.50;;;;;;;8.95;63.32;99811.66;5009966;28;20053;-81
2023/05/16 01:00:05;;;;;;;0.50;0.50;;;;;;;8.83;63.87;99811.47;5010993;28;20049;-82
2023/05/16 01:02:34;;;;;;;0.50;0.50;;;;;;;8.78;64.20;99808.59;5009680;28;20046;-82
2023/05/16 01:05:04;;;;;;;0.50;0.50;;;;;;;8.74;64.39;99808.22;5009958;28;20554;-82
2023/05/16 01:07:31;;;;;;;0.50;0.50;;;;;;;8.71;64.72;99805.09;5026152;28;20104;-81
2023/05/16 01:09:58;;;;;;;0.50;0.50;;;;;;;8.64;65.07;99800.59;5010962;28;20579;-80
2023/05/16 01:12:56;;;;;;;0.50;0.50;;;;;;;8.58;65.58;99801.44;5009757;28;20506;-81
2023/05/16 01:15:33;;;;;;;0.50;0.50;;;;;;;8.55;65.70;99804.53;4994627;28;20049;-81
2023/05/16 01:18:01;;;;;;;0.50;0.50;;;;;;;8.49;65.47;99797.31;5011097;28;20050;-81
2023/05/16 01:20:35;;;;;;;0.50;0.50;;;;;;;8.47;66.15;99807.47;5010637;28;20085;-82
2023/05/16 01:23:14;;;;;;;0.60;0.60;;;;;;;8.37;66.67;99801.66;5009019;28;20104;-81
2023/05/16 01:25:45;;;;;;;0.50;0.50;;;;;;;8.28;67.07;99805.59;5009510;28;20050;-80
2023/05/16 01:28:15;;;;;;;0.50;0.50;;;;;;;8.24;66.72;99802.53;5009080;28;20081;-81
2023/05/16 01:30:43;;;;;;;0.50;0.50;;;;;;;8.35;66.71;99825.25;4992931;28;20052;-82
2023/05/16 01:33:11;;;;;;;0.50;0.50;;;;;;;8.29;66.58;99816.16;5010048;28;20082;-81
2023/05/16 01:35:44;;;;;;;0.50;0.50;;;;;;;8.29;66.74;99813.47;4993243;28;20052;-81
2023/05/16 01:38:25;;;;;;;0.60;0.60;;;;;;;8.29;66.60;99824.25;5008829;28;20054;-81
2023/05/16 01:41:03;;;;;;;0.50;0.50;;;;;;;8.35;66.00;99803.75;5008143;28;20057;-80
2023/05/16 01:43:42;;;;;;;0.50;0.50;;;;;;;8.45;65.14;99823.00;5009451;28;20050;-80
2023/05/16 01:46:14;;;;;;;0.50;0.50;;;;;;;8.55;65.02;99826.06;5008678;28;20046;-80
2023/05/16 01:49:40;;;;;;;0.50;0.50;;;;;;;8.70;64.55;99828.50;5006206;28;20170;-80
2023/05/16 01:52:15;;;;;;;0.60;0.60;;;;;;;8.84;64.08;99827.44;4891838;29;20052;-80
2023/05/16 01:54:44;;;;;;;0.50;0.50;;;;;;;9.00;63.70;99826.13;4892347;29;20084;-80
2023/05/16 01:57:12;;;;;;;0.50;0.50;;;;;;;9.04;63.48;99819.28;4876747;29;20060;-80
2023/05/16 01:59:41;;;;;;;0.52;0.52;;;;;;;9.11;63.41;99814.69;4861338;29;20052;-81
2023/05/16 02:02:09;;;;;;;0.50;0.50;;;;;;;9.17;63.12;99814.88;4891944;29;20155;-80
2023/05/16 02:04:37;;;;;;;0.50;0.50;;;;;;;9.29;62.81;99818.50;4876879;29;20147;-81
2023/05/16 02:07:05;;;;;;;0.50;0.50;;;;;;;9.27;62.78;99813.34;4891951;29;20101;-82
2023/05/16 02:09:33;;;;;;;0.50;0.50;;;;;;;9.31;62.49;99824.50;4892025;29;20067;-81
2023/05/16 02:12:03;;;;;;;0.50;0.50;;;;;;;9.32;62.49;99826.19;4892148;29;20048;-81
2023/05/16 02:14:30;;;;;;;0.50;0.50;;;;;;;9.32;62.52;99826.19;4861156;29;20151;-80
2023/05/16 02:16:57;;;;;;;0.50;0.50;;;;;;;9.30;62.44;99814.78;4891890;29;20090;-80
2023/05/16 02:19:25;;;;;;;0.50;0.50;;;;;;;9.34;62.17;99824.06;4892105;29;20067;-80
2023/05/16 02:21:52;;;;;;;0.50;0.50;;;;;;;9.37;62.24;99831.75;4892087;29;20101;-80
2023/05/16 02:24:19;;;;;;;0.50;0.50;;;;;;;9.34;62.63;99824.06;4891879;29;20052;-80
2023/05/16 02:26:46;;;;;;;0.50;0.50;;;;;;;9.35;63.24;99833.81;4911759;28;20054;-80
2023/05/16 02:29:15;;;;;;;0.60;0.60;;;;;;;9.38;63.19;99829.88;5000318;28;20050;-80
2023/05/16 02:31:42;;;;;;;0.50;0.50;;;;;;;9.42;63.08;99831.91;5009160;28;20050;-81
2023/05/16 02:34:09;;;;;;;0.50;0.50;;;;;;;9.42;63.04;99834.59;5009365;28;20132;-81
2023/05/16 02:36:36;;;;;;;0.50;0.50;;;;;;;9.43;62.80;99840.81;4992175;28;20604;-81
2023/05/16 02:39:06;;;;;;;0.50;0.50;;;;;;;9.49;62.72;99838.06;5009463;28;20042;-81
2023/05/16 02:41:33;;;;;;;0.50;0.50;;;;;;;9.53;62.66;99833.09;5008390;28;20579;-80
2023/05/16 02:44:06;;;;;;;0.50;0.50;;;;;;;9.55;62.39;99834.50;5010254;28;20056;-82
2023/05/16 02:46:34;;;;;;;0.50;0.50;;;;;;;9.61;62.52;99840.06;5013542;28;20128;-80
2023/05/16 02:49:03;;;;;;;0.50;0.50;;;;;;;9.65;62.26;99838.63;5013189;28;20053;-80
2023/05/16 02:51:30;;;;;;;0.50;0.50;;;;;;;9.72;62.22;99836.66;5013774;28;20447;-81
2023/05/16 02:53:58;;;;;;;0.50;0.50;;;;;;;9.77;61.57;99836.84;5028658;28;20054;-80
2023/05/16 02:56:28;;;;;;;0.60;0.60;;;;;;;9.81;61.51;99826.47;5012013;28;20500;-80
2023/05/16 02:58:55;;;;;;;0.50;0.50;;;;;;;9.92;61.37;99831.13;5013452;28;20046;-80
2023/05/16 03:01:23;;;;;;;0.50;0.50;;;;;;;10.02;61.29;99833.34;5012965;28;20526;-81
2023/05/16 03:03:50;;;;;;;0.50;0.50;;;;;;;10.08;61.26;99835.97;5013104;28;20105;-81
2023/05/16 03:06:25;;;;;;;;;;;;;;;10.13;61.12;99836.16;5013819;28;20053;-81
2023/05/16 03:08:55;;;;;;;0.50;0.50;;;;;;;10.12;60.64;99833.66;5011793;28;20319;-81
2023/05/16 03:11:24;;;;;;;0.60;0.60;;;;;;;10.23;60.86;99835.66;4995795;28;20082;-81
2023/05/16 03:13:51;;;;;;;0.60;0.60;;;;;;;10.36;59.67;99838.25;4977757;28;20060;-81
2023/05/16 03:16:19;;;;;;;0.47;0.47;;;;;;;10.52;58.80;99836.00;5004680;28;20071;-77
2023/05/16 03:18:46;;;;;;;0.50;0.50;;;;;;;10.73;57.94;99834.72;5004526;28;20046;-81
2023/05/16 03:21:14;;;;;;;0.50;0.50;;;;;;;10.85;57.85;99836.44;5001218;28;20053;-80
2023/05/16 03:23:44;;;;;;;0.50;0.50;;;;;;;10.94;56.72;99830.72;5002542;28;20054;-80
2023/05/16 03:26:11;;;;;;;0.50;0.50;;;;;;;11.17;55.62;99838.16;5001436;28;20184;-80
2023/05/16 03:28:38;;;;;;;0.50;0.50;;;;;;;11.33;54.69;99836.69;5003148;28;20046;-80
2023/05/16 03:31:05;;;;;;;0.50;0.50;;;;;;;11.52;53.69;99830.19;4991821;28;20054;-79
2023/05/16 03:33:35;;;;;;;0.50;0.50;;;;;;;11.63;53.27;99825.84;5001364;28;20100;-80
2023/05/16 03:36:02;;;;;;;0.50;0.50;;;;;;;11.80;53.11;99836.81;5001938;28;20046;-80
2023/05/16 03:38:30;;;;;;;0.50;0.50;;;;;;;11.86;52.58;99836.75;5002257;28;20421;-80
2023/05/16 03:41:00;;;;;;;0.50;0.50;;;;;;;11.90;52.30;99839.78;5001598;28;20137;-80
2023/05/16 03:43:27;;;;;;;0.50;0.50;;;;;;;11.99;51.98;99838.41;4998822;28;20069;-81
2023/05/16 03:45:57;;;;;;;0.50;0.50;;;;;;;12.09;52.11;99844.06;5002147;28;20107;-81
2023/05/16 03:48:25;;;;;;;0.50;0.50;;;;;;;12.15;52.27;99831.47;5003156;28;20045;-81
2023/05/16 03:51:11;;;;;;;0.50;0.50;;;;;;;12.27;51.94;99835.00;5003340;28;20056;-81
2023/05/16 03:54:00;;;;;;;0.40;0.40;;;;;;;12.35;51.56;99844.66;5002024;28;20096;-81
2023/05/16 03:56:27;;;;;;;0.50;0.50;;;;;;;12.41;51.49;99838.31;4999964;28;20069;-81
2023/05/16 03:58:58;;;;;;;0.50;0.50;;;;;;;12.48;50.96;99844.44;5006928;28;20223;-78
2023/05/16 04:04:10;;;;;;;0.50;0.50;;;;;;;12.65;50.07;99849.13;5012671;28;20054;-80
2023/05/16 04:06:38;;;;;;;0.50;0.50;;;;;;;12.68;50.21;99832.41;5012669;28;20593;-79
2023/05/16 04:09:08;;;;;;;0.50;0.50;;;;;;;12.76;50.07;99849.13;5028209;28;20060;-80
2023/05/16 04:11:37;;;;;;;0.50;0.50;;;;;;;12.71;50.06;99851.72;5015285;28;20139;-83
2023/05/16 04:14:04;;;;;;;0.50;0.50;;;;;;;12.83;50.08;99854.38;4666120;28;10000534;-82
2023/05/16 04:16:31;;;;;;;0.50;0.50;;;;;;;12.92;49.84;99866.50;5008572;28;20045;-82
2023/05/16 04:18:58;;;;;;;0.50;0.50;;;;;;;13.01;49.94;99870.50;5006187;28;20085;-82
2023/05/16 04:21:26;;;;;;;0.40;0.40;;;;;;;13.15;49.67;99867.53;5007815;28;20145;-81
2023/05/16 04:23:53;;;;;;;0.50;0.50;;;;;;;13.27;49.72;99867.50;4999893;28;20080;-79
2023/05/16 04:26:21;;;;;;;0.50;0.50;;;;;;;13.35;48.65;99875.25;5008625;28;20046;-81
2023/05/16 04:29:07;;;;;;;0.50;0.50;;;;;;;13.42;48.68;99871.34;5010424;28;20050;-81
2023/05/16 04:31:53;;;;;;;0.40;0.40;;;;;;;13.53;48.31;99872.34;5013477;28;20079;-83
2023/05/16 04:34:26;;;;;;;0.50;0.50;;;;;;;13.62;47.99;99878.19;5018961;28;20216;-83
2023/05/16 04:36:55;;;;;;;0.40;0.40;;;;;;;13.58;46.76;99861.59;5032734;28;20053;-84
2023/05/16 04:39:23;;;;;;;0.50;0.50;;;;;;;13.74;46.76;99883.56;5031939;28;20884;-82
2023/05/16 04:41:53;;;;;;;0.40;0.40;;;;;;;13.84;47.03;99872.91;5032953;28;20053;-83
2023/05/16 04:44:20;;;;;;;0.40;0.40;;;;;;;13.87;46.42;99866.97;5043789;28;20061;-83
2023/05/16 04:46:47;;;;;;;0.50;0.50;;;;;;;13.95;46.45;99876.59;5037995;28;20049;-82
2023/05/16 04:49:15;;;;;;;0.47;0.47;;;;;;;13.92;45.87;99890.66;5030923;28;20071;-83
2023/05/16 04:51:42;;;;;;;0.50;0.50;;;;;;;13.97;46.25;99878.00;5031215;28;20045;-83
2023/05/16 04:54:09;;;;;;;0.50;0.50;;;;;;;13.93;46.44;99882.28;5029464;28;20053;-83
2023/05/16 04:56:36;;;;;;;0.50;0.50;;;;;;;13.98;46.40;99884.28;5030958;28;20041;-83
2023/05/16 04:59:03;;;;;;;0.50;0.50;;;;;;;14.03;46.46;99895.22;5032988;28;20436;-83
2023/05/16 05:01:31;;;;;;;0.50;0.50;;;;;;;13.94;46.12;99880.41;5031658;28;20053;-83
2023/05/16 05:04:17;;;;;;;0.45;0.45;;;;;;;13.96;46.19;99891.84;5016818;28;20050;-82
2023/05/16 05:06:44;;;;;;;0.40;0.40;;;;;;;13.99;45.96;99888.63;5014342;28;20076;-83
2023/05/16 05:09:11;;;;;;;0.50;0.50;;;;;;;14.20;46.21;99892.50;4998107;28;20104;-83
2023/05/16 05:11:38;;;;;;;0.40;0.40;;;;;;;14.36;46.25;99899.00;5022219;28;20153;-83
2023/05/16 05:14:07;;;;;;;0.43;0.43;;;;;;;14.31;45.22;99895.13;5003682;28;20467;-82
2023/05/16 05:16:36;;;;;;;0.50;0.50;;;;;;;14.30;45.25;99896.22;5005774;28;20513;-82
2023/05/16 05:19:04;;;;;;;0.40;0.40;;;;;;;14.27;45.11;99891.25;5002424;28;20420;-82
2023/05/16 05:21:31;;;;;;;0.50;0.50;;;;;;;14.27;44.59;99887.72;4996908;28;20057;-80
2023/05/16 05:23:58;;;;;;;0.50;0.50;;;;;;;14.25;43.98;99881.72;4988327;28;20055;-83
2023/05/16 05:26:26;;;;;;;0.50;0.50;;;;;;;14.25;44.48;99898.81;4969980;28;20050;-82
2023/05/16 05:28:53;;;;;;;0.50;0.50;;;;;;;14.42;44.24;99906.97;4987260;28;20054;-80
2023/05/16 05:31:33;;;;;;;0.50;0.50;;;;;;;14.40;44.28;99905.56;5001527;28;20539;-81
2023/05/16 05:34:02;;;;;;;0.43;0.43;;;;;;;14.48;44.73;99907.88;4986852;28;20481;-81
2023/05/16 05:36:29;;;;;;;0.50;0.50;;;;;;;14.66;45.61;99896.78;4971163;28;20058;-82
2023/05/16 05:38:57;;;;;;;0.50;0.50;;;;;;;14.90;44.03;99905.53;4988557;28;20660;-82
2023/05/16 05:41:25;;;;;;;0.50;0.50;;;;;;;15.08;43.83;99901.69;4992846;28;20500;-81
2023/05/16 05:43:55;;;;;;;0.40;0.40;;;;;;;15.22;43.62;99914.91;4993653;28;20046;-82
2023/05/16 05:46:23;;;;;;;0.40;0.40;;;;;;;15.15;43.29;99894.19;4991546;28;20088;-81
2023/05/16 05:48:51;;;;;;;0.40;0.40;;;;;;;15.06;43.52;99901.13;5022197;28;20048;-81
2023/05/16 05:51:18;;;;;;;0.40;0.40;;;;;;;15.15;43.79;99910.50;5022451;28;20595;-81
2023/05/16 05:53:46;;;;;;;0.45;0.45;;;;;;;15.18;43.38;99909.97;5002858;28;20062;-81
2023/05/16 05:56:13;;;;;;;0.40;0.40;;;;;;;15.23;42.86;99922.00;4990428;28;20513;-79
2023/05/16 05:58:40;;;;;;;0.40;0.40;;;;;;;15.20;42.96;99903.47;4998889;28;20149;-80
2023/05/16 06:01:16;;;;;;;0.50;0.50;;;;;;;15.26;42.68;99897.00;5004034;28;20100;-80
2023/05/16 06:03:43;;;;;;;0.40;0.40;;;;;;;15.42;42.84;99901.56;4990735;28;20096;-80
2023/05/16 06:06:10;;;;;;;0.50;0.50;;;;;;;15.67;41.88;99909.16;5026222;28;20053;-80
2023/05/16 06:08:46;;;;;;;0.50;0.50;;;;;;;15.65;41.18;99927.66;5030010;28;20049;-80
2023/05/16 06:11:13;;;;;;;0.50;0.50;;;;;;;15.66;41.48;99928.50;5030018;28;20140;-81
2023/05/16 06:13:44;;;;;;;0.50;0.50;;;;;;;15.70;41.89;99926.91;5029357;28;20050;-81
2023/05/16 06:16:11;;;;;;;0.50;0.50;;;;;;;15.80;41.67;99918.88;5029029;28;20053;-80
2023/05/16 06:18:39;;;;;;;0.40;0.40;;;;;;;15.96;41.03;99920.66;4992749;28;20141;-80
2023/05/16 06:21:06;;;;;;;0.40;0.40;;;;;;;16.13;40.54;99914.28;5008935;28;20054;-82
2023/05/16 06:23:34;;;;;;;0.40;0.40;;;;;;;16.16;39.94;99903.69;4976888;28;20067;-81
2023/05/16 06:26:03;;;;;;;0.50;0.50;;;;;;;16.26;40.07;99902.97;5010189;28;20050;-80
2023/05/16 06:28:40;;;;;;;0.40;0.40;;;;;;;16.33;39.69;99902.72;5010290;28;20512;-80
2023/05/16 06:31:09;;;;;;;0.40;0.40;;;;;;;16.23;40.06;99900.75;5010078;28;20184;-80
2023/05/16 06:33:38;;;;;;;0.40;0.40;;;;;;;16.21;40.30;99911.09;5009160;28;20149;-81
2023/05/16 06:36:11;;;;;;;0.40;0.40;;;;;;;16.32;39.97;99893.75;5008713;28;20165;-80
2023/05/16 06:38:42;;;;;;;0.40;0.40;;;;;;;16.48;38.26;99905.56;4999493;28;20492;-81
2023/05/16 06:41:09;;;;;;;0.40;0.40;;;;;;;16.68;37.96;99913.06;4997795;28;20054;-81
2023/05/16 06:43:36;;;;;;;0.40;0.40;;;;;;;16.78;37.77;99904.16;4998886;28;20050;-79
2023/05/16 06:46:03;;;;;;;0.40;0.40;;;;;;;16.81;37.73;99901.75;5007736;28;20046;-80
2023/05/16 06:48:31;;;;;;;0.40;0.40;;;;;;;16.89;37.78;99906.69;5002189;28;20054;-81
2023/05/16 06:51:03;;;;;;;0.40;0.40;;;;;;;16.68;36.90;99904.88;5005623;28;20065;-80
2023/05/16 06:53:30;;;;;;;0.40;0.40;;;;;;;16.66;37.19;99912.50;4989516;28;20042;-80
2023/05/16 06:55:58;;;;;;;0.40;0.40;;;;;;;16.78;37.69;99894.06;4990297;28;20116;-79
2023/05/16 06:58:26;;;;;;;0.40;0.40;;;;;;;16.94;36.56;99903.19;4995547;28;20119;-80
2023/05/16 07:00:59;;;;;;;0.40;0.40;;;;;;;16.98;36.58;99903.47;4996396;28;20046;-80
2023/05/16 07:03:30;;;;;;;0.40;0.40;;;;;;;17.12;36.13;99904.63;5001240;28;20149;-81
2023/05/16 07:05:58;;;;;;;0.40;0.40;;;;;;;17.18;35.53;99900.00;5011420;28;20074;-82
2023/05/16 07:08:25;;;;;;;0.40;0.40;;;;;;;17.27;34.42;99904.69;5009330;28;20060;-81
2023/05/16 07:10:52;;;;;;;0.40;0.40;;;;;;;17.30;34.28;99901.44;5005557;28;20101;-81
2023/05/16 07:13:22;;;;;;;0.40;0.40;;;;;;;17.39;34.66;99907.16;4998924;28;20130;-82
2023/05/16 07:15:50;;;;;;;0.40;0.40;;;;;;;17.53;34.90;99905.59;5004867;28;20058;-81
2023/05/16 07:18:17;;;;;;;0.40;0.40;;;;;;;17.32;33.46;99884.81;5010094;28;20050;-80
2023/05/16 07:20:47;;;;;;;0.40;0.40;;;;;;;17.30;34.30;99900.59;5004959;28;20055;-82
2023/05/16 07:23:16;;;;;;;0.40;0.40;;;;;;;17.38;33.76;99885.63;5002487;28;20053;-81
2023/05/16 07:25:43;;;;;;;0.40;0.40;;;;;;;17.65;32.83;99888.97;4997887;28;20042;-81
2023/05/16 07:28:11;;;;;;;0.40;0.40;;;;;;;17.89;31.56;99900.22;4989212;28;20042;-81
2023/05/16 07:30:38;;;;;;;0.40;0.40;;;;;;;17.99;32.17;99893.97;4991125;28;20089;-81
2023/05/16 07:33:06;;;;;;;0.40;0.40;;;;;;;18.25;31.58;99904.91;4992803;28;20054;-80
2023/05/16 07:35:33;;;;;;;0.40;0.40;;;;;;;18.26;30.52;99879.25;4996141;28;20042;-82
2023/05/16 07:38:05;;;;;;;0.40;0.40;;;;;;;18.46;30.02;99900.25;5009142;28;20046;-82
2023/05/16 07:40:34;;;;;;;0.50;0.50;;;;;;;18.52;30.98;99878.09;5012540;28;20104;-81
2023/05/16 07:43:05;;;;;;;0.45;0.45;;;;;;;18.75;29.83;99903.22;5007192;28;20053;-82
2023/05/16 07:45:36;;;;;;;0.50;0.50;;;;;;;18.50;30.27;99891.22;5017056;28;20520;-82
2023/05/16 07:48:06;;;;;;;0.50;0.50;;;;;;;18.52;29.85;99878.09;5028138;28;20137;-83
2023/05/16 07:50:33;;;;;;;0.50;0.50;;;;;;;18.73;30.06;99884.34;5007388;28;20074;-82
2023/05/16 07:53:01;;;;;;;0.50;0.50;;;;;;;18.75;29.58;99903.22;5016429;28;20145;-83
2023/05/16 07:55:31;;;;;;;0.50;0.50;;;;;;;18.83;30.19;99883.53;4994312;28;20054;-82
2023/05/16 07:57:58;;;;;;;0.50;0.50;;;;;;;19.08;29.25;99881.81;4994481;28;20053;-82
2023/05/16 08:00:25;;;;;;;0.50;0.50;;;;;;;19.05;29.89;99900.44;5002024;28;20050;-81
2023/05/16 08:02:52;;;;;;;0.50;0.50;;;;;;;18.96;29.13;99884.84;5011010;28;20080;-80
2023/05/16 08:05:20;;;;;;;0.50;0.50;;;;;;;19.18;29.22;99898.19;4990221;28;20050;-81
2023/05/16 08:07:49;;;;;;;0.50;0.50;;;;;;;19.25;29.46;99902.25;5023924;28;20556;-81
2023/05/16 08:10:19;;;;;;;0.50;0.50;;;;;;;19.47;29.39;99887.38;4999835;28;20556;-83
2023/05/16 08:12:47;;;;;;;0.50;0.50;;;;;;;19.94;27.65;99901.66;5019800;28;20444;-82
2023/05/16 08:15:14;;;;;;;0.60;0.60;;;;;;;19.73;27.01;99920.13;5012142;28;20050;-82
2023/05/16 08:17:44;;;;;;;0.50;0.50;;;;;;;19.41;27.34;99894.78;5024605;28;20096;-82
2023/05/16 08:20:12;;;;;;;0.50;0.50;;;;;;;19.61;28.16;99865.69;4993154;28;20055;-82
2023/05/16 08:22:39;;;;;;;0.50;0.50;;;;;;;19.86;27.96;99892.13;4993275;28;20162;-81
2023/05/16 08:25:07;;;;;;;0.50;0.50;;;;;;;20.26;28.00;99881.94;4997625;28;20050;-82
2023/05/16 08:27:38;;;;;;;0.50;0.50;;;;;;;20.43;26.95;99897.94;5011198;28;20394;-81
2023/05/16 08:30:10;;;;;;;0.50;0.50;;;;;;;20.02;27.76;99898.28;5013910;28;20596;-80
2023/05/16 08:32:40;;;;;;;0.50;0.50;;;;;;;20.10;27.64;99879.34;5009425;28;20592;-81
2023/05/16 08:35:07;;;;;;;0.57;0.57;;;;;;;20.50;27.72;99882.81;5010610;28;20053;-80
2023/05/16 08:37:35;;;;;;;0.57;0.57;;;;;;;20.87;26.26;99880.56;5012283;28;20452;-80
2023/05/16 08:40:07;;;;;;;0.50;0.50;;;;;;;21.18;26.79;99879.06;4994871;28;20049;-81
2023/05/16 08:42:34;;;;;;;0.50;0.50;;;;;;;21.38;26.18;99886.25;5010240;28;20054;-81
2023/05/16 08:45:02;;;;;;;0.50;0.50;;;;;;;21.18;26.36;99884.56;4994702;28;20434;-82
2023/05/16 08:47:31;;;;;;;0.50;0.50;;;;;;;21.23;26.69;99867.22;5010815;28;20058;-82
2023/05/16 08:50:03;;;;;;;0.47;0.47;;;;;;;20.99;26.38;99875.47;5011871;28;20685;-81
2023/05/16 08:52:33;;;;;;;0.50;0.50;;;;;;;20.70;27.45;99883.75;5017636;28;20046;-81
2023/05/16 08:55:04;;;;;;;0.60;0.60;;;;;;;20.74;28.08;99866.41;5020349;28;20053;-81
2023/05/16 08:57:43;;;;;;;0.57;0.57;;;;;;;21.06;28.12;99884.16;4996269;28;20153;-81
2023/05/16 09:00:11;;;;;;;0.60;0.60;;;;;;;22.00;26.61;99891.69;4994834;28;20054;-82
2023/05/16 09:02:43;;;;;;;0.60;0.60;;;;;;;22.23;25.28;99875.38;5010342;28;20049;-82
2023/05/16 09:05:15;;;;;;;0.60;0.60;;;;;;;22.45;26.18;99874.75;5011701;28;20049;-82
2023/05/16 09:07:44;;;;;;;0.60;0.60;;;;;;;22.54;25.70;99870.19;5010450;28;20145;-82
2023/05/16 09:10:12;;;;;;;0.60;0.60;;;;;;;22.60;26.06;99857.16;4993778;28;20058;-82
2023/05/16 09:12:40;;;;;;;0.60;0.60;;;;;;;22.85;26.48;99867.66;5011371;28;20049;-81
2023/05/16 09:15:10;;;;;;;0.60;0.60;;;;;;;23.36;24.98;99871.34;5011167;28;20137;-82
2023/05/16 09:17:48;;;;;;;0.60;0.60;;;;;;;23.95;24.37;99877.75;5011449;28;20050;-82
2023/05/16 09:20:21;;;;;;;0.60;0.60;;;;;;;24.21;23.91;99841.25;5010011;28;20052;-81
2023/05/16 09:22:58;;;;;;;0.60;0.60;;;;;;;24.45;23.50;99863.00;5009811;28;20061;-81
2023/05/16 09:25:29;;;;;;;0.60;0.60;;;;;;;24.77;22.72;99858.28;5011925;28;20188;-82
2023/05/16 09:28:24;;;;;;;0.60;0.60;;;;;;;25.01;23.02;99866.97;5009906;28;20050;-82
2023/05/16 09:30:58;;;;;;;0.50;0.50;;;;;;;25.15;22.87;99861.34;5011074;28;20060;-81
2023/05/16 09:36:15;;;;;;;0.50;0.50;;;;;;;25.78;22.10;99853.63;5011606;28;20077;-83
2023/05/16 09:39:23;;;;;;;0.50;0.50;;;;;;;25.78;22.55;99844.53;5024213;28;20064;-84
2023/05/16 09:42:17;;;;;;;0.52;0.52;;;;;;;25.29;22.07;99845.47;5022768;28;20049;-82
2023/05/16 09:45:03;;;;;;;0.55;0.55;;;;;;;25.31;22.69;99845.16;5009856;28;20134;-82
2023/05/16 09:47:31;;;;;;;0.50;0.50;;;;;;;25.90;22.47;99823.41;4977409;28;20648;-81
2023/05/16 09:50:18;;;;;;;0.50;0.50;;;;;;;26.14;21.59;99833.94;5009806;28;20053;-82
2023/05/16 09:52:47;;;;;;;0.50;0.50;;;;;;;26.00;21.45;99844.38;5008907;28;20050;-81
2023/05/16 09:55:22;;;;;;;0.50;0.50;;;;;;;26.33;21.12;99824.44;4993185;28;20050;-82
2023/05/16 09:58:04;;;;;;;0.50;0.50;;;;;;;26.34;21.00;99815.03;4994536;28;20050;-81
2023/05/16 10:00:55;;;;;;;0.57;0.57;;;;;;;26.41;20.95;99803.44;4983396;28;20131;-82
2023/05/16 10:03:35;;;;;;;0.60;0.60;;;;;;;26.49;21.29;99803.41;5003502;28;20054;-82
2023/05/16 10:06:07;;;;;;;0.50;0.50;;;;;;;26.16;20.76;99823.38;4998255;28;20139;-82
2023/05/16 10:08:35;;;;;;;0.50;0.50;;;;;;;25.96;21.35;99792.84;5000493;28;20061;-82
2023/05/16 10:11:04;;;;;;;0.50;0.50;;;;;;;25.89;20.90;99805.19;4994431;28;20070;-81
2023/05/16 10:13:36;;;;;;;0.50;0.50;;;;;;;26.21;21.34;99805.78;4652692;28;10000842;-81
2023/05/16 10:19:39;;;;;;;0.60;0.60;;;;;;;25.88;21.10;99780.66;5006401;28;20045;-83
2023/05/16 10:22:06;;;;;;;0.60;0.60;;;;;;;25.78;20.43;99803.06;5005174;28;20050;-82
2023/05/16 10:27:43;;;;;;;0.57;0.57;;;;;;;26.41;20.58;99808.97;4988212;28;20046;-82
2023/05/16 10:30:36;;;;;;;0.50;0.50;;;;;;;26.96;19.05;99819.97;4986800;28;20077;-83
2023/05/16 10:33:06;;;;;;;0.60;0.60;;;;;;;27.08;19.05;99808.19;5004051;28;20061;-82
2023/05/16 10:35:40;;;;;;;0.55;0.55;;;;;;;27.19;19.05;99806.69;5002184;28;20050;-82
2023/05/16 10:38:28;;;;;;;0.60;0.60;;;;;;;27.49;18.54;99797.50;5005217;28;20050;-82
2023/05/16 10:40:59;;;;;;;0.50;0.50;;;;;;;26.98;19.07;99794.72;4986323;28;20065;-83
2023/05/16 10:43:29;;;;;;;0.43;0.43;;;;;;;26.66;19.02;99798.97;4986275;28;20054;-82
2023/05/16 10:46:08;;;;;;;0.60;0.60;;;;;;;26.87;19.35;99801.81;4987977;28;20145;-83
2023/05/16 10:48:42;;;;;;;0.50;0.50;;;;;;;26.98;19.00;99790.00;4985800;28;20113;-83
2023/05/16 10:51:22;;;;;;;0.50;0.50;;;;;;;27.67;18.96;99799.78;4997142;28;20054;-82
2023/05/16 10:53:53;;;;;;;0.50;0.50;;;;;;;27.97;18.77;99788.59;5012829;28;20498;-83
2023/05/16 10:56:25;;;;;;;0.50;0.50;;;;;;;28.33;18.53;99784.28;4998930;28;20137;-83
2023/05/16 10:58:56;;;;;;;0.50;0.50;;;;;;;28.61;18.40;99769.75;4998031;28;20057;-82
2023/05/16 11:01:34;;;;;;;0.50;0.50;;;;;;;28.82;18.52;99769.66;5004383;28;20049;-82
2023/05/16 11:04:05;;;;;;;0.55;0.55;;;;;;;29.10;18.41;99778.91;5016920;28;20056;-83
2023/05/16 11:06:41;;;;;;;0.50;0.50;;;;;;;29.63;17.99;99778.06;5018013;28;20532;-82
2023/05/16 11:11:59;;;;;;;0.60;0.60;;;;;;;28.52;19.17;99759.56;5006629;28;20489;-83
2023/05/16 11:14:33;;;;;;;0.50;0.50;;;;;;;28.50;18.86;99759.09;4998498;28;20054;-82
2023/05/16 11:17:05;;;;;;;0.50;0.50;;;;;;;28.16;19.38;99790.03;4988516;28;20108;-83
2023/05/16 11:19:44;;;;;;;0.50;0.50;;;;;;;28.65;19.18;99776.25;5013692;28;20042;-82
2023/05/16 11:22:25;;;;;;;0.50;0.50;;;;;;;28.69;19.22;99738.31;5010412;28;20054;-83
2023/05/16 11:25:04;;;;;;;0.50;0.50;;;;;;;28.87;19.06;99761.88;4978947;28;20145;-83
2023/05/16 11:27:55;;;;;;;0.50;0.50;;;;;;;29.25;18.92;99746.78;5003910;28;20056;-82
2023/05/16 11:30:23;;;;;;;0.50;0.50;;;;;;;30.07;18.44;99751.06;5012645;28;20054;-83
2023/05/16 11:32:56;;;;;;;0.40;0.40;;;;;;;30.45;17.69;99766.38;4994540;28;20582;-83
2023/05/16 11:35:24;;;;;;;0.50;0.50;;;;;;;30.47;17.71;99746.53;4998683;28;20727;-82
2023/05/16 11:37:52;;;;;;;0.47;0.47;;;;;;;30.29;17.70;99746.09;4992711;28;20133;-82
2023/05/16 11:40:19;;;;;;;0.47;0.47;;;;;;;30.20;17.64;99738.69;5008656;28;20046;-82
2023/05/16 11:42:47;;;;;;;0.50;0.50;;;;;;;29.93;18.26;99745.09;4993588;28;20582;-81
2023/05/16 11:48:27;;;;;;;0.50;0.50;;;;;;;30.45;17.41;99755.22;4993012;28;20569;-82
2023/05/16 11:51:02;;;;;;;0.47;0.47;;;;;;;30.10;17.76;99755.09;5000270;28;20053;-82
2023/05/16 11:53:29;;;;;;;0.50;0.50;;;;;;;30.42;17.63;99751.19;5005972;28;20045;-81
2023/05/16 11:56:00;;;;;;;0.50;0.50;;;;;;;30.20;17.82;99744.25;5003390;28;20042;-81
2023/05/16 11:58:28;;;;;;;0.40;0.40;;;;;;;30.06;18.07;99757.81;5011509;28;20058;-82
2023/05/16 12:00:58;;;;;;;0.68;0.68;;;;;;;29.87;18.14;99743.75;5012747;28;20061;-83
2023/05/16 12:03:25;;;;;;;0.50;0.50;;;;;;;29.94;18.15;99744.75;5010957;28;20045;-83
2023/05/16 12:05:53;;;;;;;0.50;0.50;;;;;;;30.09;17.79;99739.59;5002959;28;20053;-82
2023/05/16 12:08:21;;;;;;;0.50;0.50;;;;;;;30.83;17.17;99754.59;5001983;28;20051;-82
2023/05/16 12:10:50;;;;;;;0.50;0.50;;;;;;;30.91;17.18;99744.41;4991925;28;20425;-82